Time;durP1;ratioP1;P1;durP2;ratioP2;P2;SDS_P1;SDS_P2;PMS_P1;PMS_P2;Temp;Humidity;BMP_temperature;BMP_pressure;BME280_temperature;BME280_humidity;BME280_pressure;Samples;Min_cycle;Max_cycle;Signal;HPM_P1;HPM_P2
2020/12/16 00:01:58;;;;;;;24.17;20.98;;;9.50;99.90;;;;;;5031619;28;20262;-42
2020/12/16 00:04:24;;;;;;;23.70;19.65;;;9.50;99.90;;;;;;5043437;28;20261;-43
2020/12/16 00:06:51;;;;;;;25.40;21.50;;;9.40;99.90;;;;;;5043045;28;20265;-43
2020/12/16 00:09:18;;;;;;;24.85;21.70;;;9.40;99.90;;;;;;5043431;28;20201;-43
2020/12/16 00:11:45;;;;;;;24.35;21.17;;;9.40;99.90;;;;;;5040871;28;20580;-42
2020/12/16 00:14:11;;;;;;;22.92;20.08;;;9.30;99.90;;;;;;5032747;28;20251;-42
2020/12/16 00:16:38;;;;;;;24.97;21.20;;;9.30;99.90;;;;;;5031787;28;20195;-43
2020/12/16 00:19:04;;;;;;;21.83;18.83;;;9.30;99.90;;;;;;5031818;28;20244;-42
2020/12/16 00:21:31;;;;;;;23.77;20.05;;;9.30;99.90;;;;;;5031639;28;20217;-42
2020/12/16 00:23:57;;;;;;;21.58;19.10;;;9.30;99.90;;;;;;5032345;28;20735;-42
2020/12/16 00:26:25;;;;;;;19.77;17.67;;;9.30;99.90;;;;;;5031864;28;20284;-42
2020/12/16 00:28:51;;;;;;;25.02;19.05;;;9.30;99.90;;;;;;5031145;28;20196;-42
2020/12/16 00:31:19;;;;;;;20.23;18.00;;;9.40;99.90;;;;;;5031300;28;20244;-42
2020/12/16 00:33:46;;;;;;;19.83;17.40;;;9.40;99.90;;;;;;5031539;28;20225;-41
2020/12/16 00:36:12;;;;;;;22.33;19.60;;;9.30;99.90;;;;;;5031516;28;20293;-42
2020/12/16 00:38:39;;;;;;;21.17;18.97;;;9.30;99.90;;;;;;5031064;28;20299;-43
2020/12/16 00:41:07;;;;;;;19.63;17.45;;;9.30;99.90;;;;;;5030987;28;20239;-42
2020/12/16 00:43:35;;;;;;;19.73;17.70;;;9.30;99.90;;;;;;5031113;28;20209;-43
2020/12/16 00:46:02;;;;;;;21.63;17.65;;;9.30;99.90;;;;;;5031101;28;20198;-42
2020/12/16 00:48:28;;;;;;;18.75;16.15;;;9.30;99.90;;;;;;5030664;28;20427;-42
2020/12/16 00:50:56;;;;;;;21.37;16.87;;;9.30;99.90;;;;;;5030628;28;20287;-42
2020/12/16 00:53:23;;;;;;;20.10;17.40;;;9.20;99.90;;;;;;5029806;28;20698;-42
2020/12/16 00:55:53;;;;;;;21.00;17.08;;;9.20;99.90;;;;;;5029299;28;20194;-42
2020/12/16 00:58:20;;;;;;;20.33;17.65;;;9.20;99.90;;;;;;5015256;28;20669;-42
2020/12/16 01:00:53;;;;;;;16.50;14.80;;;9.20;99.90;;;;;;5012114;28;20715;-43
2020/12/16 01:03:23;;;;;;;18.63;16.37;;;9.20;99.90;;;;;;5029904;28;20208;-42
2020/12/16 01:05:50;;;;;;;18.40;16.27;;;9.20;99.90;;;;;;5030719;28;20597;-42
2020/12/16 01:08:17;;;;;;;18.65;15.93;;;9.10;99.90;;;;;;5015562;28;20329;-43
2020/12/16 01:10:46;;;;;;;18.83;16.83;;;9.20;99.90;;;;;;5019836;28;20218;-42
2020/12/16 01:13:14;;;;;;;22.23;19.87;;;9.20;99.90;;;;;;5033061;28;20218;-42
2020/12/16 01:15:41;;;;;;;18.90;16.90;;;9.20;99.90;;;;;;5030863;28;20198;-42
2020/12/16 01:18:09;;;;;;;22.75;19.60;;;9.20;99.90;;;;;;5012863;28;20202;-42
2020/12/16 01:20:38;;;;;;;19.65;16.95;;;9.10;99.90;;;;;;5025520;28;20629;-42
2020/12/16 01:23:05;;;;;;;18.98;16.90;;;9.20;99.90;;;;;;5018106;28;20197;-43
2020/12/16 01:25:34;;;;;;;18.33;16.33;;;9.10;99.90;;;;;;5010104;28;20210;-43
2020/12/16 01:28:04;;;;;;;18.52;15.75;;;9.10;99.90;;;;;;5029154;28;20873;-41
2020/12/16 01:30:37;;;;;;;17.95;16.02;;;9.10;99.90;;;;;;5028814;28;20299;-42
2020/12/16 01:33:04;;;;;;;22.83;18.23;;;9.10;99.90;;;;;;5029420;28;20249;-43
2020/12/16 01:35:32;;;;;;;22.07;19.17;;;9.10;99.90;;;;;;5029146;28;20275;-42
2020/12/16 01:37:59;;;;;;;25.50;19.90;;;9.10;99.90;;;;;;5029589;28;20220;-42
2020/12/16 01:40:33;;;;;;;22.90;18.90;;;9.20;99.90;;;;;;5009566;28;20200;-42
2020/12/16 01:43:00;;;;;;;24.10;19.98;;;9.20;99.90;;;;;;5020841;28;20200;-42
2020/12/16 01:45:26;;;;;;;25.38;20.67;;;9.20;99.90;;;;;;5029039;28;20540;-43
2020/12/16 01:47:54;;;;;;;23.75;19.80;;;9.20;99.90;;;;;;5018427;28;20568;-42
2020/12/16 01:50:21;;;;;;;28.67;21.17;;;9.20;99.90;;;;;;5010193;28;20292;-43
2020/12/16 01:52:52;;;;;;;27.63;22.48;;;9.10;99.90;;;;;;5029906;28;20628;-42
2020/12/16 01:55:35;;;;;;;25.77;21.98;;;9.10;99.90;;;;;;5029183;28;20235;-42
2020/12/16 01:58:13;;;;;;;25.37;20.47;;;9.10;99.90;;;;;;5021915;28;20208;-42
2020/12/16 02:00:41;;;;;;;26.67;21.43;;;9.10;99.90;;;;;;5025026;28;20220;-42
2020/12/16 02:03:16;;;;;;;27.47;22.53;;;9.10;99.90;;;;;;5024446;28;20208;-41
2020/12/16 02:05:58;;;;;;;26.15;21.23;;;9.10;99.90;;;;;;5030001;28;20196;-42
2020/12/16 02:08:29;;;;;;;30.60;23.80;;;9.10;99.90;;;;;;5029516;28;20200;-42
2020/12/16 02:10:57;;;;;;;30.57;23.43;;;9.10;99.90;;;;;;5028746;28;20220;-42
2020/12/16 02:13:29;;;;;;;31.35;23.65;;;9.10;99.90;;;;;;5028467;28;20219;-42
2020/12/16 02:15:58;;;;;;;30.83;23.37;;;9.00;99.90;;;;;;5024109;28;20204;-42
2020/12/16 02:18:27;;;;;;;37.22;23.95;;;8.90;99.90;;;;;;5028722;28;20204;-42
2020/12/16 02:21:00;;;;;;;36.10;24.97;;;8.80;99.90;;;;;;5028683;28;20231;-42
2020/12/16 02:23:30;;;;;;;35.07;25.87;;;8.80;99.90;;;;;;5021210;28;20192;-42
2020/12/16 02:26:01;;;;;;;35.33;25.27;;;8.90;99.90;;;;;;5028985;28;20214;-42
2020/12/16 02:28:28;;;;;;;32.27;25.47;;;8.90;99.90;;;;;;5029425;28;20675;-42
2020/12/16 02:30:55;;;;;;;35.10;26.87;;;9.00;99.90;;;;;;5029573;28;20250;-42
2020/12/16 02:33:31;;;;;;;35.63;28.35;;;9.00;99.90;;;;;;5027957;28;20220;-41
2020/12/16 02:36:08;;;;;;;37.37;26.83;;;8.90;99.90;;;;;;5030017;28;20212;-42
2020/12/16 02:38:51;;;;;;;31.60;24.97;;;9.00;99.90;;;;;;5028287;28;20211;-41
2020/12/16 02:41:22;;;;;;;36.63;27.80;;;8.90;99.90;;;;;;5012784;28;20772;-41
2020/12/16 02:43:50;;;;;;;35.93;26.53;;;8.90;99.90;;;;;;5013794;28;20291;-41
2020/12/16 02:46:18;;;;;;;37.03;26.73;;;8.80;99.90;;;;;;5031992;28;20211;-41
2020/12/16 02:48:45;;;;;;;36.13;25.90;;;8.70;99.90;;;;;;5030145;28;20660;-41
2020/12/16 02:51:12;;;;;;;41.60;29.30;;;8.60;99.90;;;;;;5014118;28;20559;-41
2020/12/16 02:53:39;;;;;;;36.20;27.73;;;8.40;99.90;;;;;;5016504;28;20368;-41
2020/12/16 02:56:24;;;;;;;32.60;25.10;;;8.40;99.90;;;;;;5031552;28;20204;-41
2020/12/16 02:58:58;;;;;;;41.35;27.92;;;8.30;99.90;;;;;;5007584;28;20208;-41
2020/12/16 03:01:25;;;;;;;45.50;28.83;;;8.20;99.90;;;;;;5036250;28;20251;-41
2020/12/16 03:04:07;;;;;;;44.93;30.17;;;8.20;99.90;;;;;;5007253;28;20196;-40
2020/12/16 03:06:42;;;;;;;39.80;29.27;;;8.20;99.90;;;;;;5014596;28;20249;-42
2020/12/16 03:09:15;;;;;;;41.97;28.57;;;8.20;99.90;;;;;;5031326;28;20667;-41
2020/12/16 03:11:49;;;;;;;48.43;31.87;;;8.20;99.90;;;;;;5016397;28;20239;-41
2020/12/16 03:14:19;;;;;;;47.93;31.43;;;8.10;99.90;;;;;;5032367;28;20250;-41
2020/12/16 03:16:46;;;;;;;52.27;32.30;;;8.20;99.90;;;;;;5031212;28;20291;-41
2020/12/16 03:19:26;;;;;;;49.37;31.70;;;8.20;99.90;;;;;;5023371;28;20243;-41
2020/12/16 03:21:53;;;;;;;46.93;31.30;;;8.20;99.90;;;;;;5011812;28;20598;-42
2020/12/16 03:24:38;;;;;;;48.83;33.20;;;8.20;99.90;;;;;;5014399;28;20563;-41
2020/12/16 03:27:31;;;;;;;51.20;32.33;;;8.20;99.90;;;;;;5032287;28;20204;-42
2020/12/16 03:30:18;;;;;;;46.95;31.73;;;8.10;99.90;;;;;;5017095;28;20262;-41
2020/12/16 03:33:11;;;;;;;51.37;34.00;;;8.10;99.90;;;;;;5009085;28;20266;-41
2020/12/16 03:35:48;;;;;;;50.00;33.93;;;8.10;99.90;;;;;;5011646;28;20268;-41
2020/12/16 03:38:16;;;;;;;53.25;33.10;;;8.10;99.90;;;;;;5007298;28;20567;-41
2020/12/16 03:40:48;;;;;;;49.70;32.17;;;8.10;99.90;;;;;;5032310;28;20223;-42
2020/12/16 03:43:16;;;;;;;50.27;32.27;;;8.00;99.90;;;;;;5030973;28;20195;-41
2020/12/16 03:45:43;;;;;;;48.73;31.80;;;7.90;99.90;;;;;;5030672;28;20205;-41
2020/12/16 03:48:09;;;;;;;45.50;31.00;;;7.80;99.90;;;;;;5030267;28;20269;-41
2020/12/16 03:50:37;;;;;;;39.07;28.10;;;7.80;99.90;;;;;;5030498;28;20242;-41
2020/12/16 03:53:05;;;;;;;48.63;31.10;;;7.70;99.90;;;;;;5030776;28;20306;-42
2020/12/16 03:55:48;;;;;;;44.15;30.10;;;7.70;99.90;;;;;;5031011;28;20296;-41
2020/12/16 03:58:32;;;;;;;41.05;28.23;;;7.70;99.90;;;;;;5030270;28;20643;-42
2020/12/16 04:01:20;;;;;;;41.70;30.83;;;7.70;99.90;;;;;;5024576;28;20721;-41
2020/12/16 04:03:50;;;;;;;38.40;29.03;;;7.70;99.90;;;;;;5015693;28;20204;-41
2020/12/16 04:06:32;;;;;;;38.17;27.80;;;7.60;99.90;;;;;;5024352;28;20220;-42
2020/12/16 04:09:03;;;;;;;40.43;28.70;;;7.50;99.90;;;;;;5030256;28;20227;-42
2020/12/16 04:11:38;;;;;;;38.63;28.23;;;7.70;99.90;;;;;;5030018;28;20223;-42
2020/12/16 04:14:16;;;;;;;37.10;27.85;;;7.50;99.90;;;;;;5014003;28;20230;-42
2020/12/16 04:16:44;;;;;;;36.95;26.70;;;7.50;99.90;;;;;;5029749;28;20196;-42
2020/12/16 04:19:15;;;;;;;30.77;24.00;;;7.50;99.90;;;;;;5029913;28;20682;-41
2020/12/16 04:21:42;;;;;;;27.80;21.07;;;7.40;99.90;;;;;;5029776;28;20597;-41
2020/12/16 04:24:13;;;;;;;25.97;19.37;;;7.30;99.90;;;;;;5030355;28;20657;-41
2020/12/16 04:26:51;;;;;;;25.85;19.30;;;7.20;99.90;;;;;;5000559;28;20263;-41
2020/12/16 04:29:19;;;;;;;25.77;17.70;;;7.20;99.90;;;;;;5028527;28;20207;-41
2020/12/16 04:31:50;;;;;;;24.83;19.97;;;7.10;99.90;;;;;;5012916;28;20230;-41
2020/12/16 04:34:20;;;;;;;21.10;17.50;;;7.00;99.90;;;;;;5030850;28;20274;-42
2020/12/16 04:36:48;;;;;;;25.10;18.73;;;7.00;99.90;;;;;;5029793;28;20234;-41
2020/12/16 04:39:15;;;;;;;24.17;19.53;;;6.90;99.90;;;;;;5030595;28;20762;-41
2020/12/16 04:41:42;;;;;;;25.97;19.93;;;6.90;99.90;;;;;;5029254;28;20230;-41
2020/12/16 04:44:13;;;;;;;27.07;20.10;;;6.90;99.90;;;;;;5029750;28;20260;-41
2020/12/16 04:46:46;;;;;;;24.97;19.37;;;6.80;99.90;;;;;;5029491;28;20537;-42
2020/12/16 04:49:20;;;;;;;26.83;20.83;;;6.80;99.90;;;;;;5029446;28;20208;-41
2020/12/16 04:51:53;;;;;;;25.13;19.00;;;6.80;99.90;;;;;;5022981;28;20220;-41
2020/12/16 04:54:31;;;;;;;23.67;19.13;;;6.90;99.90;;;;;;5009844;28;20709;-42
2020/12/16 04:57:06;;;;;;;25.10;20.23;;;6.70;99.90;;;;;;5024536;28;20294;-41
2020/12/16 04:59:37;;;;;;;23.80;18.63;;;6.70;99.90;;;;;;5012252;28;20976;-41
2020/12/16 05:02:16;;;;;;;25.90;19.73;;;6.60;99.90;;;;;;5047825;22;20231;-42
2020/12/16 05:05:09;;;;;;;21.80;17.97;;;6.60;99.90;;;;;;5051033;28;20202;-42
2020/12/16 05:07:36;;;;;;;19.93;17.70;;;6.60;99.90;;;;;;5061806;28;20289;-42
2020/12/16 05:10:03;;;;;;;22.50;18.27;;;6.50;99.90;;;;;;5065331;28;20194;-41
2020/12/16 05:12:30;;;;;;;21.37;16.90;;;6.50;99.90;;;;;;5058604;28;20233;-41
2020/12/16 05:14:57;;;;;;;19.70;16.03;;;6.50;99.90;;;;;;5032856;28;20223;-42
2020/12/16 05:17:24;;;;;;;21.37;16.37;;;6.50;99.90;;;;;;5050930;28;20206;-42
2020/12/16 05:20:08;;;;;;;19.87;15.60;;;6.50;99.90;;;;;;5047124;28;20255;-42
2020/12/16 05:22:34;;;;;;;18.03;14.30;;;6.40;99.90;;;;;;5061009;28;20215;-42
2020/12/16 05:25:01;;;;;;;31.50;13.77;;;6.40;99.90;;;;;;5050719;28;20676;-42
2020/12/16 05:27:30;;;;;;;16.93;13.37;;;6.40;99.90;;;;;;5059487;28;20206;-42
2020/12/16 05:29:58;;;;;;;13.82;12.23;;;6.30;99.90;;;;;;5057821;28;20204;-42
2020/12/16 05:32:28;;;;;;;12.25;10.95;;;6.30;99.90;;;;;;5059664;28;20246;-42
2020/12/16 05:34:56;;;;;;;12.30;10.43;;;6.30;99.90;;;;;;5040043;28;20568;-42
2020/12/16 05:37:32;;;;;;;11.27;10.27;;;6.30;99.90;;;;;;5055648;28;20260;-42
2020/12/16 05:40:01;;;;;;;9.90;8.73;;;6.30;99.90;;;;;;5079878;28;20567;-42
2020/12/16 05:42:29;;;;;;;11.97;9.53;;;6.20;99.90;;;;;;5060864;28;20233;-41
2020/12/16 05:44:57;;;;;;;9.67;8.43;;;6.20;99.90;;;;;;5066674;28;20680;-41
2020/12/16 05:47:25;;;;;;;9.70;8.70;;;6.10;99.90;;;;;;5050355;28;20216;-41
2020/12/16 05:49:52;;;;;;;9.87;8.87;;;6.10;99.90;;;;;;5050532;28;20554;-41
2020/12/16 05:52:18;;;;;;;11.33;9.37;;;6.00;99.90;;;;;;5068414;28;20246;-42
2020/12/16 05:54:49;;;;;;;9.38;8.48;;;6.00;99.90;;;;;;5070709;28;20314;-42
2020/12/16 05:57:18;;;;;;;9.77;8.40;;;6.10;99.90;;;;;;5066772;28;20189;-41
2020/12/16 06:00:00;;;;;;;10.90;9.27;;;6.00;99.90;;;;;;5050917;28;20199;-41
2020/12/16 06:02:33;;;;;;;9.60;8.60;;;5.90;99.90;;;;;;5067641;28;20320;-41
2020/12/16 06:05:00;;;;;;;9.70;8.70;;;5.90;99.90;;;;;;5070700;28;20554;-42
2020/12/16 06:07:27;;;;;;;9.10;8.20;;;5.90;99.90;;;;;;5070042;28;20206;-41
2020/12/16 06:09:55;;;;;;;12.10;10.57;;;5.90;99.90;;;;;;5069964;28;20198;-42
2020/12/16 06:12:27;;;;;;;13.87;11.53;;;5.80;99.90;;;;;;5052520;28;20261;-42
2020/12/16 06:15:05;;;;;;;17.83;14.65;;;5.80;99.90;;;;;;5055422;28;20218;-42
2020/12/16 06:17:37;;;;;;;18.37;15.00;;;5.90;99.90;;;;;;5068560;28;20198;-41
2020/12/16 06:20:06;;;;;;;21.50;16.30;;;5.90;99.90;;;;;;5072535;28;20199;-42
2020/12/16 06:22:34;;;;;;;20.77;16.53;;;5.90;99.90;;;;;;5057276;28;20223;-41
2020/12/16 06:25:05;;;;;;;21.20;16.87;;;6.00;99.90;;;;;;5053854;28;20215;-42
2020/12/16 06:27:42;;;;;;;20.17;16.13;;;6.00;99.90;;;;;;5053179;28;20203;-43
2020/12/16 06:30:14;;;;;;;17.55;14.23;;;6.00;99.90;;;;;;5033970;28;20200;-41
2020/12/16 06:32:44;;;;;;;18.40;14.80;;;6.00;99.90;;;;;;5048937;28;20706;-42
2020/12/16 06:35:18;;;;;;;15.43;12.67;;;6.00;99.90;;;;;;5054166;28;20199;-42
2020/12/16 06:37:46;;;;;;;13.13;11.80;;;6.00;99.90;;;;;;5055097;28;20203;-42
2020/12/16 06:40:34;;;;;;;15.68;13.63;;;6.00;99.90;;;;;;5060435;28;20209;-42
2020/12/16 06:43:00;;;;;;;34.83;14.30;;;6.00;99.90;;;;;;5049184;28;20203;-42
2020/12/16 06:45:32;;;;;;;18.38;14.25;;;6.00;99.90;;;;;;5053242;28;20279;-42
2020/12/16 06:48:32;;;;;;;17.43;15.13;;;5.90;99.90;;;;;;5071564;28;20556;-41
2020/12/16 06:51:14;;;;;;;65.63;14.90;;;5.90;99.90;;;;;;5071513;28;20223;-42
2020/12/16 06:53:40;;;;;;;16.63;10.18;;;5.90;99.90;;;;;;5073511;28;20770;-41
2020/12/16 06:56:07;;;;;;;36.10;11.57;;;5.70;99.90;;;;;;5072808;28;20205;-42
2020/12/16 06:58:37;;;;;;;20.97;14.07;;;5.60;99.90;;;;;;5061101;28;20559;-41
2020/12/16 07:01:12;;;;;;;32.97;16.27;;;5.60;99.90;;;;;;5053281;28;20257;-41
2020/12/16 07:03:39;;;;;;;34.80;15.07;;;5.70;99.90;;;;;;5033045;28;20294;-41
2020/12/16 07:06:10;;;;;;;15.00;12.40;;;5.70;99.90;;;;;;5048484;28;20244;-41
2020/12/16 07:08:37;;;;;;;32.20;13.33;;;5.70;99.90;;;;;;5070723;28;20241;-41
2020/12/16 07:11:04;;;;;;;19.08;12.65;;;5.70;99.90;;;;;;5054887;28;20298;-42
2020/12/16 07:13:32;;;;;;;21.30;13.23;;;5.60;99.90;;;;;;5059268;28;20289;-41
2020/12/16 07:16:01;;;;;;;70.43;14.73;;;5.80;99.90;;;;;;5066649;28;20207;-42
2020/12/16 07:18:48;;;;;;;49.97;14.23;;;5.70;99.90;;;;;;5053919;28;20281;-41
2020/12/16 07:21:24;;;;;;;73.10;15.70;;;5.70;99.90;;;;;;5052829;28;20762;-42
2020/12/16 07:23:55;;;;;;;23.13;11.43;;;5.60;99.90;;;;;;5048693;28;20317;-42
2020/12/16 07:26:26;;;;;;;16.27;12.87;;;5.50;99.90;;;;;;5052274;28;20207;-41
2020/12/16 07:28:57;;;;;;;16.83;12.93;;;5.50;99.90;;;;;;5050131;28;20283;-41
2020/12/16 07:31:25;;;;;;;12.37;11.13;;;5.70;99.90;;;;;;5026936;28;20250;-41
2020/12/16 07:33:52;;;;;;;39.47;12.73;;;5.80;99.90;;;;;;5050939;28;20219;-41
2020/12/16 07:36:21;;;;;;;13.67;12.13;;;5.70;99.90;;;;;;5055451;28;20210;-42
2020/12/16 07:38:54;;;;;;;15.40;12.40;;;5.70;99.90;;;;;;5048403;28;20570;-41
2020/12/16 07:41:30;;;;;;;17.87;11.37;;;5.60;99.90;;;;;;5052304;28;20223;-42
2020/12/16 07:44:05;;;;;;;11.50;8.90;;;5.60;99.90;;;;;;5034745;28;20195;-42
2020/12/16 07:46:36;;;;;;;14.07;11.17;;;5.50;99.90;;;;;;5035281;28;20290;-42
2020/12/16 07:49:05;;;;;;;11.67;10.47;;;5.40;99.90;;;;;;5048835;28;20282;-41
2020/12/16 07:51:33;;;;;;;11.55;10.45;;;5.40;99.90;;;;;;5046023;28;20215;-42
2020/12/16 07:54:00;;;;;;;14.73;11.27;;;5.40;99.90;;;;;;5009894;28;20234;-41
2020/12/16 07:56:30;;;;;;;18.73;10.53;;;5.40;99.90;;;;;;5034786;28;20631;-42
2020/12/16 07:59:08;;;;;;;13.40;10.17;;;5.50;99.90;;;;;;5037746;28;20197;-41
2020/12/16 08:01:36;;;;;;;12.10;11.00;;;5.30;99.90;;;;;;5019004;28;20241;-41
2020/12/16 08:04:03;;;;;;;12.83;11.63;;;5.20;99.90;;;;;;5034314;28;20199;-42
2020/12/16 08:06:41;;;;;;;11.20;10.20;;;5.30;99.90;;;;;;5033676;28;20195;-41
2020/12/16 08:09:11;;;;;;;11.27;10.07;;;5.30;99.90;;;;;;5053522;28;20225;-41
2020/12/16 08:11:37;;;;;;;12.23;10.73;;;5.30;99.90;;;;;;5043966;28;20238;-41
2020/12/16 08:14:05;;;;;;;26.53;12.60;;;5.30;99.90;;;;;;5029692;28;20211;-42
2020/12/16 08:16:34;;;;;;;19.33;12.83;;;5.20;99.90;;;;;;5052447;28;20269;-41
2020/12/16 08:19:02;;;;;;;16.20;11.77;;;5.20;99.90;;;;;;5052279;28;20202;-41
2020/12/16 08:21:29;;;;;;;17.67;11.10;;;4.90;99.90;;;;;;5051804;28;20215;-41
2020/12/16 08:23:57;;;;;;;18.07;13.07;;;4.80;99.90;;;;;;5051096;28;20196;-42
2020/12/16 08:26:26;;;;;;;34.00;15.77;;;4.80;99.90;;;;;;5051351;28;20211;-41
2020/12/16 08:28:55;;;;;;;70.13;18.60;;;4.70;99.90;;;;;;5051465;28;20200;-41
2020/12/16 08:31:25;;;;;;;45.63;16.27;;;4.50;99.90;;;;;;5038069;28;20226;-42
2020/12/16 08:33:54;;;;;;;18.23;14.57;;;4.40;99.90;;;;;;5034882;28;20312;-41
2020/12/16 08:36:22;;;;;;;16.63;14.87;;;4.50;99.90;;;;;;5044868;28;20318;-42
2020/12/16 08:38:53;;;;;;;15.63;14.13;;;4.70;99.90;;;;;;5031633;28;20510;-42
2020/12/16 08:41:25;;;;;;;16.13;14.53;;;5.00;99.90;;;;;;5031607;28;20347;-41
2020/12/16 08:43:53;;;;;;;15.57;14.13;;;5.30;99.90;;;;;;5051562;28;20562;-41
2020/12/16 08:46:23;;;;;;;15.18;13.68;;;5.50;99.90;;;;;;5026861;28;20196;-42
2020/12/16 08:48:52;;;;;;;14.20;12.90;;;5.70;99.90;;;;;;5031622;28;20273;-42
2020/12/16 08:51:20;;;;;;;13.65;12.13;;;5.90;99.90;;;;;;5045956;28;20254;-42
2020/12/16 08:53:53;;;;;;;14.07;12.57;;;5.90;99.90;;;;;;5044655;28;20215;-42
2020/12/16 08:56:39;;;;;;;12.53;11.23;;;5.90;99.90;;;;;;5051062;28;20227;-41
2020/12/16 08:59:11;;;;;;;12.93;11.57;;;5.90;99.90;;;;;;5045884;28;20200;-41
2020/12/16 09:01:40;;;;;;;11.55;10.38;;;5.90;99.90;;;;;;5050842;28;20242;-42
2020/12/16 09:04:11;;;;;;;13.33;11.60;;;6.00;99.90;;;;;;5025092;28;20682;-41
2020/12/16 09:06:39;;;;;;;13.80;12.33;;;6.10;99.90;;;;;;5043647;28;20641;-42
2020/12/16 09:09:14;;;;;;;17.40;12.47;;;6.10;99.90;;;;;;5044894;28;20195;-42
2020/12/16 09:11:51;;;;;;;16.40;12.23;;;6.10;99.90;;;;;;5042442;28;20310;-41
2020/12/16 09:14:18;;;;;;;18.67;13.60;;;6.20;99.90;;;;;;5049384;28;20302;-42
2020/12/16 09:16:45;;;;;;;15.37;12.33;;;6.30;99.90;;;;;;5049975;28;20572;-42
2020/12/16 09:19:18;;;;;;;16.07;12.43;;;6.40;99.90;;;;;;5049675;28;20540;-42
2020/12/16 09:21:45;;;;;;;13.27;11.53;;;6.40;99.90;;;;;;5047056;28;20770;-42
2020/12/16 09:24:12;;;;;;;15.13;12.70;;;6.50;99.90;;;;;;5039082;28;20202;-42
2020/12/16 09:26:42;;;;;;;16.60;12.40;;;6.70;99.90;;;;;;5041846;28;20196;-43
2020/12/16 09:29:17;;;;;;;16.47;12.73;;;6.80;99.90;;;;;;5043806;28;20538;-42
2020/12/16 09:31:43;;;;;;;18.38;14.35;;;6.80;99.90;;;;;;5049131;28;20215;-43
2020/12/16 09:34:10;;;;;;;17.80;14.67;;;6.80;99.90;;;;;;5046796;28;20202;-43
2020/12/16 09:36:37;;;;;;;15.20;13.60;;;6.90;99.90;;;;;;5049263;28;20200;-42
2020/12/16 09:39:06;;;;;;;19.97;14.30;;;6.90;99.90;;;;;;5049448;28;20187;-42
2020/12/16 09:41:42;;;;;;;19.73;14.57;;;6.90;99.90;;;;;;5049579;28;20769;-42
2020/12/16 09:44:38;;;;;;;16.63;13.75;;;6.90;99.90;;;;;;5040082;28;20202;-41
2020/12/16 09:47:29;;;;;;;12.00;10.70;;;6.90;99.90;;;;;;5049473;28;20210;-41
2020/12/16 09:50:00;;;;;;;13.53;12.33;;;6.80;99.90;;;;;;5050667;28;20660;-41
2020/12/16 09:52:28;;;;;;;13.68;11.68;;;6.90;99.90;;;;;;5050958;28;20660;-42
2020/12/16 09:54:55;;;;;;;14.60;12.23;;;6.90;99.90;;;;;;5055742;28;20219;-42
2020/12/16 09:57:23;;;;;;;14.60;13.20;;;7.00;99.90;;;;;;5054706;28;20257;-41
2020/12/16 09:59:50;;;;;;;15.70;13.73;;;7.10;99.90;;;;;;5056317;28;20203;-46
2020/12/16 10:02:18;;;;;;;14.00;12.57;;;7.20;99.90;;;;;;5060778;28;20298;-41
2020/12/16 10:04:45;;;;;;;15.27;13.73;;;7.40;99.90;;;;;;5075928;28;20218;-41
2020/12/16 10:07:12;;;;;;;15.93;14.03;;;7.40;99.90;;;;;;5061540;28;20207;-42
2020/12/16 10:09:52;;;;;;;20.87;15.23;;;7.40;99.90;;;;;;5050198;28;20698;-41
2020/12/16 10:12:19;;;;;;;15.53;13.93;;;7.40;99.90;;;;;;5054572;28;20220;-42
2020/12/16 10:14:46;;;;;;;15.05;12.95;;;7.50;99.90;;;;;;5052571;28;20282;-42
2020/12/16 10:17:14;;;;;;;15.60;13.90;;;7.60;99.90;;;;;;5036841;28;20192;-41
2020/12/16 10:19:40;;;;;;;16.33;14.73;;;8.00;99.90;;;;;;5054289;28;20577;-42
2020/12/16 10:22:07;;;;;;;15.33;13.73;;;8.80;99.90;;;;;;5054211;28;20582;-41
2020/12/16 10:24:34;;;;;;;14.65;13.18;;;10.30;99.90;;;;;;5054217;28;20228;-42
2020/12/16 10:27:02;;;;;;;15.32;13.63;;;11.50;99.90;;;;;;5054510;28;20376;-42
2020/12/16 10:29:28;;;;;;;13.80;12.30;;;12.60;99.90;;;;;;5054805;28;20327;-42
2020/12/16 10:31:57;;;;;;;14.15;12.80;;;13.50;99.90;;;;;;5054348;28;20695;-42
2020/12/16 10:34:24;;;;;;;13.27;11.98;;;14.00;99.90;;;;;;5055195;28;20225;-42
2020/12/16 10:36:52;;;;;;;12.60;11.40;;;14.40;99.90;;;;;;5054166;28;20206;-42
2020/12/16 10:39:20;;;;;;;13.18;11.88;;;14.90;99.90;;;;;;5054059;28;20566;-42
2020/12/16 10:41:49;;;;;;;12.85;11.60;;;15.30;99.90;;;;;;5053762;28;20211;-42
2020/12/16 10:44:16;;;;;;;16.70;12.85;;;15.40;99.90;;;;;;5053539;28;20231;-43
2020/12/16 10:46:44;;;;;;;14.85;13.00;;;15.30;99.90;;;;;;5053811;28;20246;-42
2020/12/16 10:49:11;;;;;;;14.48;12.30;;;14.30;99.90;;;;;;5049529;28;20253;-42
2020/12/16 10:51:38;;;;;;;13.90;12.50;;;13.70;99.90;;;;;;5051483;28;20323;-42
2020/12/16 10:54:05;;;;;;;15.43;13.93;;;12.90;99.90;;;;;;5051106;28;20234;-42
2020/12/16 10:56:32;;;;;;;14.95;13.45;;;12.00;99.90;;;;;;5057220;28;20576;-42
2020/12/16 10:59:03;;;;;;;16.42;13.90;;;11.30;99.90;;;;;;5037466;28;20685;-43
2020/12/16 11:01:37;;;;;;;16.30;14.80;;;10.80;99.90;;;;;;5048348;28;20222;-42
2020/12/16 11:04:10;;;;;;;15.65;13.95;;;10.30;99.90;;;;;;5047484;28;20289;-42
2020/12/16 11:06:48;;;;;;;15.50;13.90;;;9.90;99.90;;;;;;5047101;28;20197;-43
2020/12/16 11:09:25;;;;;;;16.25;14.55;;;9.60;99.90;;;;;;5030593;28;20749;-41
2020/12/16 11:12:03;;;;;;;16.92;15.23;;;9.50;99.90;;;;;;5049101;28;20256;-42
2020/12/16 11:14:38;;;;;;;17.15;15.32;;;9.50;99.90;;;;;;5049269;28;20235;-41
2020/12/16 11:17:11;;;;;;;17.67;15.87;;;9.80;99.90;;;;;;5065152;28;20198;-42
2020/12/16 11:19:41;;;;;;;17.05;15.35;;;10.30;99.90;;;;;;5066392;28;20814;-42
2020/12/16 11:22:13;;;;;;;16.48;14.88;;;12.10;99.90;;;;;;5069044;28;20212;-43
2020/12/16 11:24:40;;;;;;;17.23;15.18;;;13.70;99.90;;;;;;5068900;28;20208;-42
2020/12/16 11:27:11;;;;;;;17.88;15.98;;;14.50;99.90;;;;;;5068065;28;20202;-43
2020/12/16 11:29:49;;;;;;;17.63;15.75;;;14.10;99.90;;;;;;5049346;28;20671;-43
2020/12/16 11:32:21;;;;;;;18.52;16.58;;;14.40;99.90;;;;;;5069129;28;20216;-43
2020/12/16 11:34:53;;;;;;;16.65;14.93;;;14.20;99.90;;;;;;5052383;28;20222;-42
2020/12/16 11:37:25;;;;;;;17.63;15.80;;;13.80;99.90;;;;;;5051417;28;20219;-42
2020/12/16 11:39:58;;;;;;;16.45;14.75;;;13.80;99.90;;;;;;5072076;28;20359;-42
2020/12/16 11:42:30;;;;;;;15.82;14.18;;;13.70;99.90;;;;;;5069964;28;20221;-42
2020/12/16 11:45:05;;;;;;;14.65;13.25;;;13.20;99.90;;;;;;5053280;28;20410;-42
2020/12/16 11:47:40;;;;;;;16.88;15.18;;;12.80;99.90;;;;;;5069953;28;20255;-43
2020/12/16 11:50:11;;;;;;;15.82;14.23;;;13.00;99.90;;;;;;5053597;28;20719;-43
2020/12/16 11:52:40;;;;;;;19.10;14.70;;;13.00;99.90;;;;;;5059502;28;20260;-43
2020/12/16 11:55:07;;;;;;;13.85;12.48;;;13.20;99.90;;;;;;5052896;28;20224;-41
2020/12/16 11:57:34;;;;;;;14.93;13.52;;;13.60;99.90;;;;;;5051449;28;20278;-42
2020/12/16 12:00:01;;;;;;;15.45;13.93;;;13.80;99.90;;;;;;5034622;28;20207;-42
2020/12/16 12:02:28;;;;;;;14.77;13.38;;;14.10;99.90;;;;;;5052238;28;20221;-42
2020/12/16 12:04:54;;;;;;;15.00;12.60;;;14.20;99.90;;;;;;5052445;28;20646;-42
2020/12/16 12:07:21;;;;;;;14.52;13.05;;;14.40;99.90;;;;;;5052004;28;20622;-43
2020/12/16 12:09:47;;;;;;;13.77;12.48;;;14.50;99.90;;;;;;5052087;28;20210;-43
2020/12/16 12:12:14;;;;;;;16.20;14.00;;;14.60;99.90;;;;;;5052004;28;20242;-42
2020/12/16 12:14:40;;;;;;;14.98;13.57;;;15.00;99.90;;;;;;5051449;28;20725;-42
2020/12/16 12:17:08;;;;;;;14.82;13.38;;;15.10;99.90;;;;;;5047624;28;20203;-42
2020/12/16 12:19:35;;;;;;;13.75;12.38;;;15.20;99.90;;;;;;5047913;28;20226;-42
2020/12/16 12:22:02;;;;;;;13.35;12.13;;;15.40;99.90;;;;;;5050023;28;20246;-42
2020/12/16 12:24:28;;;;;;;14.45;12.95;;;15.50;99.90;;;;;;5051407;28;20257;-43
2020/12/16 12:26:55;;;;;;;14.07;12.68;;;15.70;99.90;;;;;;5045860;28;20203;-43
2020/12/16 12:29:21;;;;;;;13.27;11.98;;;15.60;99.90;;;;;;5047002;28;20207;-42
2020/12/16 12:31:48;;;;;;;12.93;11.63;;;15.60;99.90;;;;;;5050618;28;20717;-42
2020/12/16 12:34:15;;;;;;;13.70;12.35;;;15.60;99.90;;;;;;5051448;28;20249;-43
2020/12/16 12:36:42;;;;;;;14.30;12.95;;;15.70;99.90;;;;;;5051017;28;20205;-43
2020/12/16 12:39:08;;;;;;;13.77;11.73;;;15.60;99.90;;;;;;5051501;28;20599;-43
2020/12/16 12:41:35;;;;;;;13.80;12.50;;;15.60;99.90;;;;;;5051162;28;20244;-42
2020/12/16 12:44:01;;;;;;;13.30;11.75;;;15.40;99.90;;;;;;5051194;28;20195;-42
2020/12/16 12:46:28;;;;;;;14.38;12.88;;;15.50;99.90;;;;;;5031320;28;20208;-43
2020/12/16 12:48:55;;;;;;;13.13;11.68;;;15.60;99.90;;;;;;5030862;28;20246;-43
2020/12/16 12:51:23;;;;;;;12.85;11.65;;;15.60;99.90;;;;;;5030729;28;20220;-43
2020/12/16 12:53:50;;;;;;;14.57;13.07;;;15.60;99.90;;;;;;5030647;28;20694;-43